Página principal
METAR-TAF:

METAR-TAF

Aeroportos :

Aeroporto Internacional de Djibouti-Ambouli

Djibouti, Djibouti

latitude: 11-33N, longitude: 043-10E, altura: 49 m

Observação actual do tempo

O boletim foi feito há 1 hora e 52 minutos, às 08:00 UTC
Vento 8 kt de este
Temperatura 37°C
Humidade 42%
Pressão 1006 hPa
Visibilidade: 8000 m
Poucas nuvensa uma altura de 26600 ft
bruma

METAR: HDAM 270800Z 09008KT 8000 HZ FEW266 37/22 Q1006

Hora: 12:52 (09:52 UTC)

Previsão

O boletim foi feito há 10 horas e 52 minutos, às 23:00 UTC
Previsão válida de 27 às 00 UTC a 27 às 24 UTC
Vento 3 kt com direcção variável
Visibilidade 10 km ou mais
Nuvens dispersasa uma altura de 2000 ft
Tornando-se
de 27 às 06 UTC a 27 às 12 UTC
Vento 10 kt de este
Poucas nuvensa uma altura de 2300 ft

TAF: HDAM 262300Z 2700/2724 VRB03KT 9999 SCT020 BECMG 2706/2712 08010KT FEW023

Observações e previsões do tempo de mais de 4000 aeroportos (mensagens METAR e TAF).

As estações disponíveis são os pontos amarelos e vermelhos sobre o mapa.

Mova o rato sobre o mapa para ver o nome da estação.

Depois clique no ponto para visualizar as observações e previsões meteorológicas.

Para alterar o mapa : clique nos botões verdes com uma cruz preta para aumentar o zoom; no botão verde com uma pitada de zoom; ou nas setas verdes para mapas adjacentes.


METAR-TAF: